Terminal Aerodrome Forecast
Issued by NWS

Home | Current Version | Previous Version | Text Only | Print | Product List | Glossary On
Versions: 1 2 3 4 5 6 7 8 9 10 11 12 13 14
628
FTUS46 KSTO 250527
TAFSMF
TAF
KSMF 250527Z 2506/2606 18012KT P6SM BKN090
     FM251100 16012KT P6SM VCSH OVC050
     FM251500 18006KT P6SM -SHRA OVC025
     FM252100 16008KT P6SM VCSH SCT025 OVC035=

USA.gov is the U.S. government's official web portal to all federal, state and local government web resources and services.